Time;durP1;ratioP1;P1;durP2;ratioP2;P2;SDS_P1;SDS_P2;PMS_P1;PMS_P2;Temp;Humidity;BMP_temperature;BMP_pressure;BME280_temperature;BME280_humidity;BME280_pressure;Samples;Min_cycle;Max_cycle;Signal;HPM_P1;HPM_P2
2022/05/27 00:00:44;;;;;;;31.30;18.30;;;;;;;14.72;80.39;99251.22;25127;1316;3026466;-68
2022/05/27 00:03:13;;;;;;;33.70;14.70;;;;;;;14.71;80.21;99252.17;25168;1316;3052644;-66
2022/05/27 00:05:42;;;;;;;27.20;16.90;;;;;;;14.72;80.65;99256.34;25112;1313;3026387;-65
2022/05/27 00:08:11;;;;;;;33.30;17.20;;;;;;;15.04;79.22;99256.55;25094;1316;3049371;-62
2022/05/27 00:10:41;;;;;;;32.50;17.90;;;;;;;14.89;79.30;99248.71;25144;1316;3027418;-63
2022/05/27 00:13:09;;;;;;;35.80;18.80;;;;;;;14.69;80.38;99259.35;25137;1315;3026591;-62
2022/05/27 00:15:39;;;;;;;27.50;15.00;;;;;;;14.47;81.10;99258.42;25091;1316;3050837;-68
2022/05/27 00:18:10;;;;;;;28.80;15.20;;;;;;;14.69;80.97;99249.13;25184;1316;3026362;-67
2022/05/27 00:20:39;;;;;;;29.90;15.80;;;;;;;15.11;79.24;99244.65;25143;1315;3027441;-62
2022/05/27 00:23:09;;;;;;;31.00;18.00;;;;;;;15.05;78.68;99247.44;25127;1315;3027794;-68
2022/05/27 00:25:40;;;;;;;33.70;17.90;;;;;;;14.82;79.02;99252.34;25147;1316;3054514;-69
2022/05/27 00:28:10;;;;;;;28.30;14.50;;;;;;;14.50;80.47;99248.49;25100;1316;3025858;-66
2022/05/27 00:30:39;;;;;;;25.60;14.80;;;;;;;14.81;80.16;99243.39;25061;1316;3026593;-63
2022/05/27 00:33:08;;;;;;;28.80;16.70;;;;;;;14.96;79.03;99241.61;25137;1315;3026245;-66
2022/05/27 00:35:52;;;;;;;37.00;19.00;;;;;;;14.69;79.41;99250.36;25120;1316;3052456;-67
2022/05/27 00:38:21;;;;;;;29.30;16.90;;;;;;;14.36;80.59;99249.77;25156;1316;3026422;-68
2022/05/27 00:40:52;;;;;;;24.40;14.00;;;;;;;14.21;81.38;99248.34;25107;1316;3050865;-67
2022/05/27 00:43:21;;;;;;;25.60;14.60;;;;;;;14.71;80.25;99244.02;25114;1316;3028852;-67
2022/05/27 00:46:00;;;;;;;26.60;16.30;;;;;;;14.97;78.32;99239.43;25114;1316;3026757;-66
2022/05/27 00:48:29;;;;;;;28.50;16.30;;;;;;;14.87;78.01;99240.77;25099;1316;3056009;-65
2022/05/27 00:50:58;;;;;;;37.00;17.80;;;;;;;14.63;78.79;99242.91;25060;1316;3026371;-66
2022/05/27 00:53:37;;;;;;;26.00;14.10;;;;;;;14.34;79.80;99243.27;25027;1316;3051437;-63
2022/05/27 00:56:06;;;;;;;27.60;14.60;;;;;;;14.67;79.20;99235.57;25154;1315;3053473;-66
2022/05/27 00:59:00;;;;;;;31.00;16.50;;;;;;;14.71;78.22;99236.78;25118;1316;3026740;-67
2022/05/27 01:01:29;;;;;;;26.00;14.80;;;;;;;14.34;79.44;99243.44;25087;1316;3052137;-69
2022/05/27 01:03:58;;;;;;;30.30;16.70;;;;;;;14.29;79.39;99240.53;25351;1315;3026853;-61
2022/05/27 01:06:27;;;;;;;20.00;12.00;;;;;;;14.10;79.80;99239.86;25496;1315;3056908;-62
2022/05/27 01:08:57;;;;;;;23.80;13.10;;;;;;;14.51;79.04;99235.80;25525;1315;3025985;-60
2022/05/27 01:11:58;;;;;;;26.60;16.20;;;;;;;14.74;77.68;99232.29;25565;1316;3028798;-63
2022/05/27 01:14:43;;;;;;;27.80;15.60;;;;;;;14.63;77.56;99236.56;25092;1316;3058724;-67
2022/05/27 01:17:15;;;;;;;28.70;16.80;;;;;;;14.15;78.28;99237.92;25126;1316;3050280;-69
2022/05/27 01:20:21;;;;;;;25.30;14.20;;;;;;;13.85;80.22;99236.00;25128;1313;3026128;-67
2022/05/27 01:22:53;;;;;;;26.80;15.20;;;;;;;14.37;78.94;99234.73;25135;1314;3052434;-65
2022/05/27 01:26:10;;;;;;;30.40;16.50;;;;;;;14.34;77.81;99234.13;25089;1316;3027146;-64
2022/05/27 01:28:44;;;;;;;35.90;16.80;;;;;;;14.14;78.30;99236.38;25093;1316;3051234;-68
2022/05/27 01:31:25;;;;;;;25.30;12.80;;;;;;;13.70;80.64;99237.33;25059;1316;3053623;-69
2022/05/27 01:34:26;;;;;;;25.20;13.60;;;;;;;14.04;79.85;99234.21;25092;1316;3055244;-65
2022/05/27 01:37:07;;;;;;;23.60;14.40;;;;;;;14.24;78.56;99236.10;25067;1316;3058490;-68
2022/05/27 01:39:47;;;;;;;27.70;14.50;;;;;;;14.07;78.54;99237.67;25099;1316;3053932;-65
2022/05/27 01:42:23;;;;;;;25.30;14.50;;;;;;;13.75;79.22;99232.41;25129;1316;3053627;-64
2022/05/27 01:45:09;;;;;;;20.70;11.80;;;;;;;13.66;79.46;99235.34;25094;1313;3051358;-66
2022/05/27 01:47:45;;;;;;;26.70;14.30;;;;;;;14.11;78.45;99235.04;25118;1316;3069756;-66
2022/05/27 01:50:36;;;;;;;24.70;15.10;;;;;;;14.09;77.48;99236.77;25141;1316;3049346;-62
2022/05/27 01:53:13;;;;;;;27.20;15.50;;;;;;;13.95;77.22;99237.31;25057;1316;3052570;-66
2022/05/27 01:55:45;;;;;;;23.50;14.60;;;;;;;13.69;78.46;99243.04;25095;1316;3055395;-65
2022/05/27 01:58:19;;;;;;;22.30;14.00;;;;;;;13.66;78.73;99241.58;25056;1316;3026158;-65
2022/05/27 02:00:49;;;;;;;27.80;14.20;;;;;;;13.88;78.43;99241.46;25112;1316;3026828;-65
2022/05/27 02:03:28;;;;;;;26.60;15.10;;;;;;;13.95;77.72;99245.46;25145;1316;3026788;-63
2022/05/27 02:05:59;;;;;;;25.70;14.90;;;;;;;13.87;77.52;99249.25;25123;1315;3051758;-67
2022/05/27 02:09:04;;;;;;;28.50;16.00;;;;;;;13.56;78.04;99247.92;25099;1316;3028954;-66
2022/05/27 02:11:35;;;;;;;22.50;11.70;;;;;;;13.51;78.52;99243.90;25090;1316;3049118;-67
2022/05/27 02:14:29;;;;;;;20.60;13.80;;;;;;;13.92;76.94;99240.77;25064;1313;3026499;-66
2022/05/27 02:17:03;;;;;;;18.70;12.20;;;;;;;13.92;76.75;99236.52;25096;1313;3055376;-64
2022/05/27 02:19:35;;;;;;;23.70;14.40;;;;;;;13.89;75.77;99238.90;25115;1315;3026364;-66
2022/05/27 02:22:10;;;;;;;23.40;13.00;;;;;;;13.55;76.47;99236.39;25088;1315;3026094;-63
2022/05/27 02:24:42;;;;;;;17.70;10.30;;;;;;;13.33;77.38;99240.27;25158;1313;3055702;-68
2022/05/27 02:27:20;;;;;;;19.20;10.40;;;;;;;14.06;75.09;99239.10;25106;1316;3029300;-65
2022/05/27 02:29:51;;;;;;;20.40;12.60;;;;;;;14.17;73.96;99239.86;25078;1315;3068973;-63
2022/05/27 02:32:27;;;;;;;21.80;12.40;;;;;;;13.85;75.13;99240.58;25102;1316;3026254;-66
2022/05/27 02:35:09;;;;;;;23.30;13.40;;;;;;;13.66;74.91;99248.92;25061;1316;3051758;-67
2022/05/27 02:37:46;;;;;;;17.90;11.60;;;;;;;13.39;75.93;99245.29;25100;1313;3054847;-69
2022/05/27 02:40:17;;;;;;;18.10;10.00;;;;;;;13.16;77.35;99247.01;25087;1316;3057227;-67
2022/05/27 02:43:12;;;;;;;17.90;9.80;;;;;;;13.65;75.64;99244.73;25104;1313;3052444;-63
2022/05/27 02:46:03;;;;;;;19.00;11.10;;;;;;;13.57;75.32;99249.23;25065;1313;3053496;-64
2022/05/27 02:49:07;;;;;;;17.10;10.60;;;;;;;13.86;74.27;99248.43;25121;1315;3055129;-68
2022/05/27 02:51:41;;;;;;;18.90;11.80;;;;;;;13.70;73.88;99253.36;25049;1316;3070197;-68
2022/05/27 02:54:25;;;;;;;17.40;10.50;;;;;;;13.37;74.90;99255.69;25133;1316;3051954;-65
2022/05/27 02:57:18;;;;;;;15.50;9.40;;;;;;;13.32;75.65;99258.32;25130;1316;3055174;-62
2022/05/27 02:59:50;;;;;;;15.50;9.00;;;;;;;13.81;73.72;99257.27;25067;1313;3055436;-63
2022/05/27 03:02:19;;;;;;;21.00;11.30;;;;;;;13.89;72.77;99256.98;25173;1316;3026865;-66
2022/05/27 03:04:50;;;;;;;18.60;9.70;;;;;;;13.64;73.35;99258.58;25117;1313;3026677;-67
2022/05/27 03:07:27;;;;;;;18.50;11.10;;;;;;;13.51;73.71;99258.33;25038;1316;3028297;-64
2022/05/27 03:10:23;;;;;;;17.50;11.70;;;;;;;13.23;74.54;99251.42;25100;1316;3054247;-65
2022/05/27 03:13:23;;;;;;;10.60;6.70;;;;;;;13.19;75.00;99250.88;25127;1313;3071517;-64
2022/05/27 03:16:29;;;;;;;18.80;9.60;;;;;;;13.67;73.25;99247.75;25132;1316;3049257;-67
2022/05/27 03:19:20;;;;;;;16.50;10.50;;;;;;;13.94;72.12;99250.13;25075;1316;3055355;-68
2022/05/27 03:22:04;;;;;;;21.10;11.50;;;;;;;13.50;73.65;99251.02;25070;1316;3055715;-64
2022/05/27 03:24:46;;;;;;;14.90;8.60;;;;;;;13.37;74.04;99249.15;25134;1316;3057499;-66
2022/05/27 03:27:51;;;;;;;18.60;10.30;;;;;;;13.26;73.93;99246.80;25082;1316;3053522;-67
2022/05/27 03:30:25;;;;;;;17.20;9.80;;;;;;;13.26;74.75;99250.15;25020;1318;3053740;-64
2022/05/27 03:33:18;;;;;;;13.10;8.70;;;;;;;13.93;72.26;99252.67;25105;1313;3054507;-66
2022/05/27 03:35:53;;;;;;;13.20;8.60;;;;;;;14.09;70.30;99261.58;25030;1316;3070928;-65
2022/05/27 03:38:25;;;;;;;12.60;8.10;;;;;;;13.99;70.28;99262.74;25126;1316;3049359;-64
2022/05/27 03:41:13;;;;;;;15.80;9.70;;;;;;;13.97;69.96;99261.81;25105;1316;3029833;-66
2022/05/27 03:43:42;;;;;;;15.40;10.10;;;;;;;13.62;71.39;99259.12;25141;1315;3052429;-66
2022/05/27 03:46:11;;;;;;;16.70;9.10;;;;;;;13.53;72.07;99256.94;25010;1315;3026119;-63
2022/05/27 03:48:40;;;;;;;11.90;6.70;;;;;;;13.55;71.82;99262.39;25106;1315;3054389;-63
2022/05/27 03:51:14;;;;;;;11.50;6.20;;;;;;;13.91;71.40;99256.67;25116;1315;3027033;-66
2022/05/27 03:56:32;;;;;;;10.20;6.90;;;;;;;14.12;68.91;99265.57;25114;1316;3054822;-67
2022/05/27 03:59:02;;;;;;;8.50;5.80;;;;;;;14.08;69.05;99262.61;25073;1315;3026578;-67
2022/05/27 04:01:32;;;;;;;13.20;7.60;;;;;;;13.91;69.61;99257.20;25062;1316;3026530;-66
2022/05/27 04:04:02;;;;;;;15.70;7.80;;;;;;;13.72;69.99;99254.66;25049;1316;3026346;-65
2022/05/27 04:06:32;;;;;;;13.90;7.60;;;;;;;13.67;71.09;99253.23;25199;1316;3026802;-66
2022/05/27 04:09:00;;;;;;;11.30;5.90;;;;;;;13.72;71.46;99256.02;25143;1315;3028052;-67
2022/05/27 04:11:31;;;;;;;11.00;6.40;;;;;;;14.48;68.91;99244.60;25116;1316;3051991;-65
2022/05/27 04:14:00;;;;;;;9.00;5.40;;;;;;;14.76;68.05;99244.71;25118;1316;3026380;-67
2022/05/27 04:16:29;;;;;;;9.90;6.20;;;;;;;14.85;67.19;99244.83;25146;1316;3058234;-66
2022/05/27 04:18:58;;;;;;;8.70;5.80;;;;;;;14.67;66.96;99257.73;25116;1316;3028415;-65
2022/05/27 04:21:27;;;;;;;9.90;5.70;;;;;;;14.65;66.76;99253.28;25086;1316;3054521;-65
2022/05/27 04:23:56;;;;;;;9.60;6.30;;;;;;;14.50;67.51;99256.64;25103;1316;3026460;-64
2022/05/27 04:26:25;;;;;;;12.70;6.20;;;;;;;14.48;67.47;99259.73;25082;1315;3051691;-67
2022/05/27 04:28:54;;;;;;;14.00;6.70;;;;;;;14.36;67.46;99263.04;25134;1316;3026510;-66
2022/05/27 04:31:24;;;;;;;10.60;5.40;;;;;;;14.28;68.33;99259.30;25121;1316;3026560;-67
2022/05/27 04:33:52;;;;;;;14.00;5.90;;;;;;;14.31;67.95;99248.65;25149;1316;3026259;-62
2022/05/27 04:36:23;;;;;;;16.00;5.20;;;;;;;14.40;68.23;99247.74;25101;1316;3054612;-68
2022/05/27 04:38:52;;;;;;;7.60;4.30;;;;;;;15.29;66.16;99238.70;25109;1315;3026717;-67
2022/05/27 04:41:24;;;;;;;13.30;5.20;;;;;;;15.56;64.33;99237.05;25044;1313;3026745;-67
2022/05/27 04:43:54;;;;;;;8.80;4.80;;;;;;;15.64;64.32;99241.13;25121;1316;3054621;-69
2022/05/27 04:46:23;;;;;;;8.70;4.70;;;;;;;15.72;63.68;99242.73;25152;1316;3029476;-66
2022/05/27 04:48:51;;;;;;;11.80;4.90;;;;;;;15.46;64.21;99238.02;25129;1315;3050442;-65
2022/05/27 04:51:20;;;;;;;28.20;5.80;;;;;;;15.36;65.37;99237.27;25111;1314;3026842;-66
2022/05/27 04:53:49;;;;;;;8.60;5.00;;;;;;;15.25;65.81;99251.94;25077;1316;3051270;-67
2022/05/27 04:56:19;;;;;;;9.00;5.30;;;;;;;15.16;66.29;99253.23;25156;1315;3026388;-65
2022/05/27 04:58:48;;;;;;;6.30;4.00;;;;;;;15.20;66.29;99253.07;25127;1316;3068945;-67
2022/05/27 05:01:18;;;;;;;10.90;4.30;;;;;;;15.27;65.66;99243.16;25143;1316;3026177;-67
2022/05/27 05:03:47;;;;;;;8.90;4.40;;;;;;;15.34;65.41;99245.95;25104;1315;3026512;-62
2022/05/27 05:06:16;;;;;;;7.60;4.50;;;;;;;15.29;65.74;99248.98;25151;1316;3073251;-65
2022/05/27 05:08:45;;;;;;;6.70;3.60;;;;;;;15.37;65.41;99245.49;25094;1315;3026703;-67
2022/05/27 05:11:14;;;;;;;10.10;4.30;;;;;;;15.46;64.60;99239.46;25108;1315;3050584;-67
2022/05/27 05:13:42;;;;;;;6.30;3.50;;;;;;;15.53;64.90;99244.14;25131;1316;3028248;-69
2022/05/27 05:16:11;;;;;;;7.50;3.70;;;;;;;15.61;64.60;99241.52;25219;1316;3051405;-68
2022/05/27 05:18:40;;;;;;;10.00;4.60;;;;;;;15.74;64.04;99244.50;25072;1316;3028151;-67
2022/05/27 05:21:09;;;;;;;6.00;3.60;;;;;;;15.79;64.15;99247.11;25072;1316;3051409;-68
2022/05/27 05:23:38;;;;;;;11.30;3.60;;;;;;;15.88;63.49;99252.66;25104;1316;3026244;-63
2022/05/27 05:26:08;;;;;;;6.70;3.80;;;;;;;16.01;63.73;99238.30;25143;1316;3059242;-64
2022/05/27 05:28:37;;;;;;;4.80;3.40;;;;;;;16.16;63.52;99239.64;25051;1316;3026926;-65
2022/05/27 05:31:08;;;;;;;6.20;3.30;;;;;;;16.31;62.82;99241.38;25162;1316;3051543;-66
2022/05/27 05:33:37;;;;;;;7.80;3.20;;;;;;;16.38;62.23;99239.03;25200;1314;3026842;-65
2022/05/27 05:36:07;;;;;;;12.80;4.50;;;;;;;16.43;62.06;99241.02;25141;1316;3026387;-67
2022/05/27 05:38:36;;;;;;;15.20;3.70;;;;;;;16.50;61.93;99249.82;25136;1316;3026480;-68
2022/05/27 05:41:05;;;;;;;8.40;3.10;;;;;;;16.60;61.82;99240.20;25156;1316;3026456;-64
2022/05/27 05:43:34;;;;;;;5.70;3.40;;;;;;;16.69;61.49;99237.85;25073;1316;3051466;-68
2022/05/27 05:46:03;;;;;;;4.70;2.80;;;;;;;16.80;60.99;99244.14;25165;1313;3027421;-62
2022/05/27 05:48:34;;;;;;;9.30;3.80;;;;;;;16.88;60.44;99234.40;25105;1316;3058528;-70
2022/05/27 05:51:02;;;;;;;4.90;3.30;;;;;;;16.95;59.89;99235.21;25172;1316;3027253;-65
2022/05/27 05:53:32;;;;;;;5.80;3.00;;;;;;;17.06;59.67;99243.60;25101;1316;3026782;-67
2022/05/27 05:56:01;;;;;;;11.50;3.40;;;;;;;17.14;59.04;99238.45;25404;1316;3026152;-66
2022/05/27 05:58:31;;;;;;;10.70;3.50;;;;;;;17.16;59.13;99229.00;25547;1315;3049913;-62
2022/05/27 06:01:05;;;;;;;6.70;3.10;;;;;;;17.24;59.08;99230.79;25513;1315;3054532;-61
2022/05/27 06:03:33;;;;;;;15.60;3.30;;;;;;;17.29;58.65;99234.91;25348;1316;3026662;-67
2022/05/27 06:06:03;;;;;;;7.70;3.30;;;;;;;17.37;58.06;99224.15;25085;1316;3052011;-67
2022/05/27 06:08:32;;;;;;;7.10;2.90;;;;;;;17.50;57.56;99225.54;25143;1316;3027577;-67
2022/05/27 06:11:02;;;;;;;7.50;2.80;;;;;;;17.61;57.75;99227.52;24916;1316;3376692;-64
2022/05/27 06:13:31;;;;;;;7.30;2.70;;;;;;;17.65;57.07;99221.13;25160;1316;3026495;-67
2022/05/27 06:16:00;;;;;;;3.90;2.70;;;;;;;17.78;57.04;99223.27;25079;1316;3052006;-67
2022/05/27 06:18:29;;;;;;;8.30;2.70;;;;;;;17.79;56.23;99228.83;25172;1313;3026527;-67
2022/05/27 06:20:59;;;;;;;5.20;2.70;;;;;;;17.89;56.33;99223.69;25137;1316;3050030;-68
2022/05/27 06:23:28;;;;;;;7.40;2.80;;;;;;;17.98;55.64;99231.17;25157;1316;3026370;-64
2022/05/27 06:26:04;;;;;;;10.40;2.90;;;;;;;18.06;55.77;99223.86;25078;1316;3029919;-67
2022/05/27 06:34:23;;;;;;;4.50;2.50;;;;;;;18.41;55.21;99234.48;25130;1313;3055455;-66
2022/05/27 06:37:04;;;;;;;8.30;2.40;;;;;;;18.41;54.52;99240.36;25075;1316;3055375;-67
2022/05/27 06:39:34;;;;;;;3.20;2.10;;;;;;;18.46;54.21;99230.83;25089;1316;3059041;-65
2022/05/27 06:42:07;;;;;;;6.70;2.30;;;;;;;18.56;54.18;99244.89;25135;1316;3026618;-67
2022/05/27 06:44:37;;;;;;;6.90;2.50;;;;;;;18.68;54.36;99243.63;25075;1316;3026602;-65
2022/05/27 06:47:06;;;;;;;5.90;2.70;;;;;;;18.68;54.48;99240.20;25217;1314;3026437;-68
2022/05/27 06:49:36;;;;;;;6.70;2.50;;;;;;;18.76;54.05;99236.56;25134;1316;3049694;-67
2022/05/27 06:52:09;;;;;;;7.00;2.70;;;;;;;18.90;53.18;99234.22;25137;1316;3027471;-66
2022/05/27 06:54:39;;;;;;;8.30;3.20;;;;;;;18.92;52.66;99231.64;25166;1316;3026712;-67
2022/05/27 06:57:12;;;;;;;7.40;3.60;;;;;;;18.86;51.89;99235.27;25117;1316;3068122;-67
2022/05/27 06:59:46;;;;;;;10.50;3.00;;;;;;;19.01;51.92;99227.30;25142;1316;3052199;-68
2022/05/27 07:02:15;;;;;;;14.10;3.30;;;;;;;19.02;51.91;99233.24;25190;1313;3027236;-65
2022/05/27 07:04:44;;;;;;;11.00;3.60;;;;;;;19.03;52.28;99239.13;25107;1315;3068089;-70
2022/05/27 07:07:13;;;;;;;9.10;4.10;;;;;;;19.14;52.33;99241.02;25159;1317;3029547;-67
2022/05/27 07:09:43;;;;;;;12.70;4.20;;;;;;;19.21;51.89;99235.79;25161;1315;3026682;-67
2022/05/27 07:12:12;;;;;;;8.80;3.80;;;;;;;19.26;52.26;99240.52;25136;1316;3028233;-66
2022/05/27 07:14:41;;;;;;;12.10;4.00;;;;;;;19.44;52.52;99239.59;25178;1314;3048501;-69
2022/05/27 07:17:10;;;;;;;8.70;4.70;;;;;;;19.48;52.29;99241.52;25142;1313;3026579;-65
2022/05/27 07:19:39;;;;;;;12.10;4.70;;;;;;;19.52;52.29;99244.04;25145;1316;3070757;-65
2022/05/27 07:22:09;;;;;;;18.90;6.30;;;;;;;19.62;52.20;99244.20;25122;1314;3026301;-66
2022/05/27 07:24:38;;;;;;;16.80;8.80;;;;;;;19.64;52.39;99245.85;25144;1316;3051935;-67
2022/05/27 07:27:07;;;;;;;33.10;11.60;;;;;;;19.66;51.19;99242.23;25149;1316;3026243;-65
2022/05/27 07:29:37;;;;;;;36.90;12.40;;;;;;;19.79;51.19;99242.81;25174;1313;3052375;-63
2022/05/27 07:35:01;;;;;;;33.00;13.10;;;;;;;19.92;50.71;99248.61;31562;1319;3026590;-68
2022/05/27 07:37:30;;;;;;;36.90;15.50;;;;;;;20.07;50.34;99247.80;24982;1322;3026309;-65
2022/05/27 07:39:59;;;;;;;36.60;12.70;;;;;;;20.36;49.67;99244.02;25089;1322;3028367;-66
2022/05/27 07:42:28;;;;;;;18.50;8.20;;;;;;;20.29;49.44;99250.69;24986;1322;3026396;-69
2022/05/27 07:44:57;;;;;;;23.40;7.20;;;;;;;20.26;49.02;99249.09;25015;1322;3027933;-68
2022/05/27 07:47:26;;;;;;;22.50;5.70;;;;;;;20.24;49.13;99251.73;24866;1319;3223630;-68
2022/05/27 07:49:55;;;;;;;13.90;5.70;;;;;;;20.16;49.97;99250.45;25096;1317;3026665;-68
2022/05/27 07:52:24;;;;;;;10.70;4.70;;;;;;;20.21;49.68;99252.04;25118;1316;3054441;-68
2022/05/27 07:54:55;;;;;;;9.70;4.40;;;;;;;20.33;49.78;99251.17;25170;1316;3026632;-68
2022/05/27 07:57:25;;;;;;;12.50;4.70;;;;;;;20.32;49.52;99245.94;25090;1316;3027333;-68
2022/05/27 07:59:54;;;;;;;13.00;4.60;;;;;;;20.37;49.49;99247.71;25103;1315;3026811;-66
2022/05/27 08:02:24;;;;;;;7.80;4.20;;;;;;;20.42;49.40;99246.14;25153;1316;3026836;-65
2022/05/27 08:04:53;;;;;;;15.60;4.10;;;;;;;20.52;48.92;99240.06;25155;1316;3058476;-67
2022/05/27 08:07:22;;;;;;;17.40;5.80;;;;;;;20.64;48.64;99233.52;25105;1315;3026341;-66
2022/05/27 08:09:50;;;;;;;19.60;6.30;;;;;;;20.52;47.47;99233.50;25154;1316;3052847;-67
2022/05/27 08:12:23;;;;;;;9.90;4.30;;;;;;;20.55;48.17;99229.59;25212;1315;3027060;-66
2022/05/27 08:14:52;;;;;;;10.80;4.30;;;;;;;20.54;45.15;99236.55;25093;1316;3026772;-66
2022/05/27 08:17:21;;;;;;;12.60;4.80;;;;;;;20.50;44.93;99230.89;25131;1316;3051432;-67
2022/05/27 08:19:52;;;;;;;14.90;4.20;;;;;;;20.46;45.05;99230.91;25131;1316;3026750;-69
2022/05/27 08:22:21;;;;;;;10.20;4.60;;;;;;;20.61;44.83;99218.90;25167;1316;3028101;-68
2022/05/27 08:24:50;;;;;;;9.40;3.80;;;;;;;20.52;44.92;99230.69;25126;1316;3026704;-67
2022/05/27 08:27:19;;;;;;;18.00;4.90;;;;;;;20.55;45.01;99215.42;25211;1316;3027012;-65
2022/05/27 08:29:48;;;;;;;10.10;3.10;;;;;;;20.79;44.65;99214.61;25139;1316;3049079;-70
2022/05/27 08:32:18;;;;;;;10.20;2.90;;;;;;;20.94;43.83;99238.83;25179;1315;3026136;-67
2022/05/27 08:40:40;;;;;;;7.80;2.40;;;;;;;20.91;42.47;99223.35;25162;1316;3054515;-66
2022/05/27 08:43:20;;;;;;;11.40;2.20;;;;;;;20.86;40.96;99231.41;25123;1314;3053880;-65
2022/05/27 08:46:01;;;;;;;7.20;2.30;;;;;;;21.02;40.64;99229.80;25146;1315;3068376;-68
2022/05/27 08:48:32;;;;;;;10.30;2.50;;;;;;;21.09;40.59;99227.95;25120;1316;3052275;-68
2022/05/27 08:51:05;;;;;;;10.70;2.20;;;;;;;21.10;40.59;99223.24;25181;1316;3027515;-67
2022/05/27 08:53:45;;;;;;;7.20;2.30;;;;;;;21.03;41.05;99239.88;25103;1315;3028639;-67
2022/05/27 08:59:51;;;;;;;5.20;2.10;;;;;;;21.02;40.37;99224.12;25167;1315;3053179;-66
2022/05/27 09:02:45;;;;;;;6.60;2.00;;;;;;;21.15;40.12;99239.07;25142;1316;3055746;-64
2022/05/27 09:05:33;;;;;;;6.00;1.80;;;;;;;21.24;39.69;99231.55;25109;1315;3050997;-66
2022/05/27 09:08:17;;;;;;;5.80;1.90;;;;;;;21.34;39.92;99222.02;25176;1315;3071092;-67
2022/05/27 09:10:55;;;;;;;4.40;2.30;;;;;;;21.40;40.00;99226.97;25127;1315;3049559;-69
2022/05/27 09:13:42;;;;;;;6.20;1.90;;;;;;;21.46;40.28;99224.33;25132;1315;3052251;-68
2022/05/27 09:16:45;;;;;;;7.60;1.80;;;;;;;21.57;39.28;99219.25;25132;1316;3055396;-70
2022/05/27 09:19:42;;;;;;;11.20;2.30;;;;;;;21.52;39.08;99222.59;25147;1315;3056572;-68
2022/05/27 09:22:36;;;;;;;5.70;2.10;;;;;;;21.71;39.16;99213.43;25210;1316;3049840;-65
2022/05/27 09:25:15;;;;;;;9.50;2.00;;;;;;;21.80;38.63;99214.59;25079;1316;3051799;-64
2022/05/27 09:27:55;;;;;;;6.60;2.10;;;;;;;21.85;38.36;99221.31;25126;1316;3052110;-68
2022/05/27 09:30:24;;;;;;;8.00;2.40;;;;;;;21.70;37.55;99218.55;25170;1316;3068692;-67
2022/05/27 09:32:58;;;;;;;7.40;2.20;;;;;;;21.53;38.01;99213.98;25136;1318;3026561;-64
2022/05/27 09:35:46;;;;;;;5.60;1.80;;;;;;;21.73;38.04;99216.08;25099;1316;3026740;-66
2022/05/27 09:38:30;;;;;;;6.40;1.90;;;;;;;21.86;37.93;99219.91;25124;1314;3055025;-64
2022/05/27 09:41:23;;;;;;;7.20;1.80;;;;;;;22.04;37.75;99217.73;25126;1314;3055333;-66
2022/05/27 09:44:26;;;;;;;7.00;1.80;;;;;;;22.03;37.61;99230.14;25136;1315;3049503;-65
2022/05/27 09:46:55;;;;;;;6.30;2.10;;;;;;;22.13;37.95;99209.44;25091;1315;3055749;-62
2022/05/27 09:49:24;;;;;;;10.70;2.10;;;;;;;22.42;37.84;99215.80;25058;1316;3026832;-67
2022/05/27 09:51:55;;;;;;;6.90;1.80;;;;;;;22.50;37.41;99228.13;25023;1315;3052776;-65
2022/05/27 09:54:47;;;;;;;10.60;1.90;;;;;;;22.53;36.95;99219.40;25138;1315;3026725;-68
2022/05/27 09:57:23;;;;;;;5.90;1.50;;;;;;;22.69;36.41;99224.85;25130;1315;3057674;-63
2022/05/27 09:59:59;;;;;;;15.00;2.00;;;;;;;22.79;36.81;99209.39;25133;1316;3052937;-65
2022/05/27 10:02:34;;;;;;;6.80;1.60;;;;;;;22.84;36.78;99205.77;25171;1313;3053066;-64
2022/05/27 10:05:13;;;;;;;6.00;1.90;;;;;;;22.85;36.65;99203.23;25122;1315;3050640;-70
2022/05/27 10:07:51;;;;;;;5.10;1.70;;;;;;;22.85;36.75;99204.83;25121;1316;3070968;-63
2022/05/27 10:10:25;;;;;;;7.00;1.70;;;;;;;22.88;36.46;99211.93;25157;1315;3048257;-63
2022/05/27 10:13:18;;;;;;;4.80;1.40;;;;;;;22.86;36.71;99197.39;25128;1316;3052994;-67
2022/05/27 10:15:51;;;;;;;6.10;1.40;;;;;;;23.08;35.67;99211.64;25119;1315;3055538;-66
2022/05/27 10:18:24;;;;;;;5.70;1.70;;;;;;;23.04;35.46;99216.54;25125;1315;3026682;-68
2022/05/27 10:21:01;;;;;;;6.70;1.40;;;;;;;23.04;34.71;99210.98;25094;1316;3052800;-66
2022/05/27 10:23:30;;;;;;;6.70;1.70;;;;;;;23.08;34.64;99191.55;25139;1315;3052995;-62
2022/05/27 10:26:20;;;;;;;7.50;2.50;;;;;;;23.26;35.22;99181.84;25136;1315;3026038;-66
2022/05/27 10:29:00;;;;;;;7.30;2.30;;;;;;;23.39;35.72;99189.08;25108;1315;3052279;-65
2022/05/27 10:31:30;;;;;;;3.00;1.50;;;;;;;23.45;34.62;99205.86;25181;1313;3053674;-67
2022/05/27 10:34:00;;;;;;;3.10;1.30;;;;;;;23.25;34.44;99195.67;25070;1312;3026407;-63
2022/05/27 10:36:41;;;;;;;4.80;1.40;;;;;;;23.15;34.37;99195.41;25093;1312;3052483;-64
2022/05/27 10:39:19;;;;;;;4.40;1.50;;;;;;;23.10;34.39;99189.92;25177;1312;3057237;-65
2022/05/27 10:42:09;;;;;;;7.50;1.70;;;;;;;23.19;34.65;99176.78;25340;1313;3051241;-63
2022/05/27 10:45:00;;;;;;;4.90;1.90;;;;;;;23.11;34.26;99182.50;25363;1315;3068426;-65
2022/05/27 10:47:32;;;;;;;5.40;1.40;;;;;;;23.07;34.21;99173.88;25322;1312;3051960;-67
2022/05/27 10:50:18;;;;;;;7.20;1.80;;;;;;;23.21;33.89;99170.80;25181;1313;3026687;-65
2022/05/27 10:53:04;;;;;;;10.70;1.50;;;;;;;23.26;34.35;99174.86;25126;1313;3055513;-66
2022/05/27 10:55:51;;;;;;;4.50;1.50;;;;;;;23.56;34.06;99167.88;25144;1312;3059525;-61
2022/05/27 11:02:08;;;;;;;6.10;2.10;;;;;;;23.85;34.30;99162.41;25066;1312;3055825;-65
2022/05/27 11:04:37;;;;;;;;;;;;;;;23.70;34.40;99159.28;24987;1312;3053179;-68
2022/05/27 11:07:29;;;;;;;8.00;2.20;;;;;;;23.63;34.90;99154.41;25117;1313;3026648;-67
2022/05/27 11:11:10;;;;;;;8.70;2.60;;;;;;;23.51;34.87;99156.52;25053;1312;3055622;-65
2022/05/27 11:16:39;;;;;;;8.20;3.20;;;;;;;23.25;35.82;99150.86;24954;1320;3071577;-65
2022/05/27 11:19:14;;;;;;;11.90;2.80;;;;;;;23.54;35.17;99152.83;25081;1312;3026463;-64
2022/05/27 11:21:52;;;;;;;5.00;2.40;;;;;;;23.85;34.33;99146.20;25150;1311;3050584;-66
2022/05/27 11:24:45;;;;;;;8.20;2.90;;;;;;;24.08;33.94;99146.83;25065;1312;3071902;-64
2022/05/27 11:27:29;;;;;;;7.80;1.80;;;;;;;24.32;33.84;99148.88;25141;1312;3049167;-65
2022/05/27 11:30:22;;;;;;;5.50;1.60;;;;;;;24.35;32.54;99145.68;25091;1312;3055035;-65
2022/05/27 11:33:08;;;;;;;5.10;2.10;;;;;;;24.31;32.24;99150.46;25164;1313;3054909;-63
2022/05/27 11:36:34;;;;;;;5.80;1.50;;;;;;;24.11;32.06;99137.83;25081;1312;3058853;-61
2022/05/27 11:39:47;;;;;;;4.30;1.60;;;;;;;23.86;33.32;99149.99;24917;1321;3050038;-63
2022/05/27 11:42:38;;;;;;;5.80;2.20;;;;;;;23.45;33.53;99146.98;24967;1321;3055536;-63
2022/05/27 11:45:14;;;;;;;11.30;2.80;;;;;;;23.84;33.21;99137.40;25091;1312;3053381;-65
2022/05/27 11:48:08;;;;;;;7.20;2.50;;;;;;;23.79;33.24;99136.55;25055;1312;3069339;-61
2022/05/27 11:51:07;;;;;;;16.10;2.60;;;;;;;23.71;33.47;99130.59;25092;1312;3051260;-66
2022/05/27 11:54:21;;;;;;;6.10;2.00;;;;;;;23.98;32.95;99127.96;25100;1312;3052386;-67
2022/05/27 11:57:19;;;;;;;10.30;2.00;;;;;;;24.13;32.95;99128.32;24988;1321;3054735;-71
2022/05/27 11:59:52;;;;;;;6.10;2.50;;;;;;;24.36;32.68;99129.71;24968;1321;3059345;-62
2022/05/27 12:02:52;;;;;;;4.90;2.20;;;;;;;24.24;32.02;99144.54;25187;1313;3052487;-59
2022/05/27 12:05:34;;;;;;;4.10;1.60;;;;;;;24.26;31.21;99132.67;25146;1312;3055282;-67
2022/05/27 12:08:33;;;;;;;7.50;1.60;;;;;;;24.11;31.57;99139.65;25064;1313;3053519;-62
2022/05/27 12:11:37;;;;;;;11.00;1.70;;;;;;;24.24;31.38;99129.63;25124;1312;3070866;-61
2022/05/27 12:14:18;;;;;;;6.90;1.40;;;;;;;24.84;30.65;99121.54;25035;1313;3051957;-66
2022/05/27 12:16:50;;;;;;;3.50;1.40;;;;;;;25.17;30.37;99121.61;25074;1315;3055663;-66
2022/05/27 12:19:26;;;;;;;8.60;1.70;;;;;;;25.28;30.01;99135.88;25044;1316;3028672;-64
2022/05/27 12:22:16;;;;;;;5.40;1.20;;;;;;;25.28;30.18;99122.91;25128;1312;3055607;-65